Time;durP1;ratioP1;P1;durP2;ratioP2;P2;SDS_P1;SDS_P2;PMS_P1;PMS_P2;Temp;Humidity;BMP_temperature;BMP_pressure;BME280_temperature;BME280_humidity;BME280_pressure;Samples;Min_cycle;Max_cycle;Signal;HPM_P1;HPM_P2
2021/08/03 00:00:12;;;;;;;11.17;7.60;;;13.20;99.90;;;;;;5015091;28;20665;-76
2021/08/03 00:02:38;;;;;;;9.33;7.13;;;13.10;99.90;;;;;;5015117;28;20560;-76
2021/08/03 00:05:04;;;;;;;10.30;7.60;;;13.20;99.90;;;;;;5015300;28;20210;-76
2021/08/03 00:07:30;;;;;;;8.87;6.90;;;13.20;99.90;;;;;;5032823;28;20194;-76
2021/08/03 00:09:56;;;;;;;9.47;7.80;;;13.20;99.90;;;;;;5014955;28;20678;-76
2021/08/03 00:12:21;;;;;;;9.03;7.97;;;13.20;99.90;;;;;;5015390;28;20635;-76
2021/08/03 00:14:51;;;;;;;8.40;7.60;;;13.10;99.90;;;;;;5031425;28;20258;-76
2021/08/03 00:17:20;;;;;;;9.57;8.57;;;13.10;99.90;;;;;;5015133;28;20658;-76
2021/08/03 00:19:45;;;;;;;9.60;7.93;;;13.20;99.90;;;;;;5014641;28;20758;-76
2021/08/03 00:22:11;;;;;;;8.73;7.47;;;13.10;99.90;;;;;;5014939;28;20291;-76
2021/08/03 00:24:37;;;;;;;9.70;8.00;;;13.00;99.90;;;;;;5014995;28;20201;-76
2021/08/03 00:27:03;;;;;;;10.20;8.13;;;13.00;99.90;;;;;;5014066;28;20190;-76
2021/08/03 00:29:29;;;;;;;10.17;8.20;;;12.90;99.90;;;;;;5030830;28;20202;-76
2021/08/03 00:31:55;;;;;;;8.37;7.57;;;12.90;99.90;;;;;;5014560;28;20571;-76
2021/08/03 00:34:21;;;;;;;9.10;7.77;;;12.90;99.90;;;;;;5014348;28;20635;-76
2021/08/03 00:36:46;;;;;;;9.53;7.93;;;12.90;99.90;;;;;;5014558;28;20178;-76
2021/08/03 00:39:12;;;;;;;9.40;7.53;;;12.90;99.90;;;;;;4998003;28;20670;-76
2021/08/03 00:41:44;;;;;;;8.97;7.60;;;12.80;99.90;;;;;;5014571;28;20687;-76
2021/08/03 00:44:09;;;;;;;9.23;8.17;;;12.80;99.90;;;;;;5014878;28;20552;-76
2021/08/03 00:46:35;;;;;;;9.90;8.60;;;12.80;99.90;;;;;;5014962;28;20209;-76
2021/08/03 00:49:01;;;;;;;9.77;7.53;;;12.80;99.90;;;;;;5014129;28;20203;-76
2021/08/03 00:51:26;;;;;;;8.40;7.57;;;12.70;99.90;;;;;;5014595;28;20266;-76
2021/08/03 00:53:52;;;;;;;9.37;8.37;;;12.70;99.90;;;;;;4997984;28;20263;-76
2021/08/03 00:56:18;;;;;;;10.27;8.10;;;12.70;99.90;;;;;;5014330;28;20194;-76
2021/08/03 00:58:43;;;;;;;12.03;9.30;;;12.80;99.90;;;;;;5030402;28;20658;-76
2021/08/03 01:01:09;;;;;;;12.63;8.53;;;12.70;99.90;;;;;;5014324;28;20214;-75
2021/08/03 01:03:34;;;;;;;9.20;7.90;;;12.60;99.90;;;;;;5030727;28;20183;-76
2021/08/03 01:06:27;;;;;;;10.37;8.63;;;12.60;99.90;;;;;;5030890;28;20185;-76
2021/08/03 01:09:08;;;;;;;10.40;7.93;;;12.60;99.90;;;;;;4998734;28;20230;-76
2021/08/03 01:11:41;;;;;;;10.70;9.03;;;12.60;99.90;;;;;;5015197;28;20178;-76
2021/08/03 01:14:28;;;;;;;9.37;8.37;;;12.60;99.90;;;;;;4998336;28;20194;-76
2021/08/03 01:16:58;;;;;;;11.70;8.97;;;12.50;99.90;;;;;;4999508;28;20631;-76
2021/08/03 01:19:49;;;;;;;10.13;9.10;;;12.50;99.90;;;;;;4998037;28;20781;-76
2021/08/03 01:22:20;;;;;;;11.03;8.60;;;12.50;99.90;;;;;;5030868;28;20182;-76
2021/08/03 01:25:05;;;;;;;9.70;8.70;;;12.50;99.90;;;;;;5032316;28;20184;-76
2021/08/03 01:27:54;;;;;;;10.00;9.00;;;12.50;99.90;;;;;;5030608;28;20580;-76
2021/08/03 01:30:20;;;;;;;9.93;8.40;;;12.50;99.90;;;;;;5030429;28;20281;-76
2021/08/03 01:32:45;;;;;;;10.30;9.17;;;12.40;99.90;;;;;;5031165;28;20179;-76
2021/08/03 01:35:11;;;;;;;11.47;9.70;;;12.40;99.90;;;;;;5014629;28;20650;-76
2021/08/03 01:37:37;;;;;;;13.43;9.70;;;12.40;99.90;;;;;;5030800;28;20538;-76
2021/08/03 01:40:07;;;;;;;14.57;10.33;;;12.40;99.90;;;;;;5050789;28;20211;-77
2021/08/03 01:42:36;;;;;;;11.40;9.90;;;12.40;99.90;;;;;;5019676;28;20185;-76
2021/08/03 01:45:02;;;;;;;11.27;10.07;;;12.40;99.90;;;;;;5019286;28;20183;-77
2021/08/03 01:47:27;;;;;;;10.93;9.70;;;12.30;99.90;;;;;;5003420;28;20186;-77
2021/08/03 01:49:53;;;;;;;12.80;10.00;;;12.30;99.90;;;;;;5035823;28;20203;-76
2021/08/03 01:52:18;;;;;;;10.33;9.23;;;12.40;99.90;;;;;;5003506;28;20710;-76
2021/08/03 01:54:45;;;;;;;13.43;10.33;;;12.40;99.90;;;;;;5036189;28;20175;-76
2021/08/03 01:57:10;;;;;;;11.63;9.53;;;12.40;99.90;;;;;;5020187;28;20213;-76
2021/08/03 01:59:36;;;;;;;12.27;10.43;;;12.40;99.90;;;;;;5035111;28;20234;-76
2021/08/03 02:02:01;;;;;;;13.00;10.47;;;12.40;99.90;;;;;;5019169;28;20214;-76
2021/08/03 02:04:28;;;;;;;11.50;10.17;;;12.40;99.90;;;;;;5036032;28;20175;-76
2021/08/03 02:06:53;;;;;;;12.77;10.20;;;12.40;99.90;;;;;;5019678;28;20179;-77
2021/08/03 02:09:19;;;;;;;12.10;10.20;;;12.40;99.90;;;;;;5019055;28;20258;-76
2021/08/03 02:11:45;;;;;;;10.60;9.47;;;12.30;99.90;;;;;;5019680;28;20245;-76
2021/08/03 02:14:11;;;;;;;11.57;9.83;;;12.30;99.90;;;;;;5018039;28;20638;-76
2021/08/03 02:16:36;;;;;;;10.90;9.80;;;12.40;99.90;;;;;;5050004;28;20638;-76
2021/08/03 02:19:02;;;;;;;11.10;10.00;;;12.30;99.90;;;;;;5034222;28;20245;-76
2021/08/03 02:21:28;;;;;;;12.37;11.00;;;12.20;99.90;;;;;;5015337;28;20187;-76
2021/08/03 02:23:53;;;;;;;12.50;10.77;;;12.20;99.90;;;;;;5016819;28;20205;-76
2021/08/03 02:26:19;;;;;;;16.20;10.57;;;12.20;99.90;;;;;;5033181;28;20183;-76
2021/08/03 02:28:45;;;;;;;12.23;10.07;;;12.20;99.90;;;;;;5000218;28;20206;-76
2021/08/03 02:31:25;;;;;;;11.30;10.07;;;12.20;99.90;;;;;;5000384;28;20202;-76
2021/08/03 02:33:54;;;;;;;11.37;10.03;;;12.20;99.90;;;;;;5020517;28;20239;-76
2021/08/03 02:36:20;;;;;;;12.37;10.53;;;12.10;99.90;;;;;;5053106;28;20589;-76
2021/08/03 02:38:49;;;;;;;10.33;9.23;;;12.10;99.90;;;;;;5019599;28;20662;-76
2021/08/03 02:41:15;;;;;;;16.67;10.47;;;12.10;99.90;;;;;;5036441;28;20265;-76
2021/08/03 02:43:40;;;;;;;11.47;10.27;;;12.10;99.90;;;;;;5052959;28;20264;-76
2021/08/03 02:46:06;;;;;;;13.63;10.97;;;12.10;99.90;;;;;;5019258;28;20186;-76
2021/08/03 02:48:33;;;;;;;13.47;11.83;;;12.10;99.90;;;;;;5016399;28;20750;-76
2021/08/03 02:50:59;;;;;;;15.77;12.63;;;12.10;99.90;;;;;;5014935;28;20300;-76
2021/08/03 02:53:30;;;;;;;14.20;11.77;;;12.10;99.90;;;;;;5032947;28;20244;-76
2021/08/03 02:55:58;;;;;;;14.53;12.23;;;12.10;99.90;;;;;;5016890;28;20183;-76
2021/08/03 02:58:28;;;;;;;15.27;11.90;;;12.00;99.90;;;;;;4999899;28;20553;-76
2021/08/03 03:00:54;;;;;;;13.53;11.57;;;12.00;99.90;;;;;;5016390;28;20191;-76
2021/08/03 03:03:22;;;;;;;12.57;11.27;;;12.00;99.90;;;;;;5016117;28;20183;-76
2021/08/03 03:05:50;;;;;;;15.17;12.40;;;11.90;99.90;;;;;;5032663;28;20199;-76
2021/08/03 03:08:17;;;;;;;14.07;12.57;;;11.90;99.90;;;;;;4999946;28;20449;-76
2021/08/03 03:10:47;;;;;;;15.77;14.03;;;11.90;99.90;;;;;;4999721;28;20211;-76
2021/08/03 03:13:30;;;;;;;15.87;13.40;;;11.90;99.90;;;;;;5032526;28;20203;-76
2021/08/03 03:15:56;;;;;;;14.17;12.70;;;11.90;99.90;;;;;;5017844;28;20609;-76
2021/08/03 03:18:21;;;;;;;16.67;13.90;;;11.90;99.90;;;;;;5015673;28;20196;-76
2021/08/03 03:20:47;;;;;;;18.90;14.37;;;11.90;99.90;;;;;;5015824;28;20647;-76
2021/08/03 03:23:14;;;;;;;16.90;15.10;;;11.80;99.90;;;;;;5015955;28;20189;-76
2021/08/03 03:25:40;;;;;;;17.53;13.77;;;11.90;99.90;;;;;;5016057;28;20187;-76
2021/08/03 03:28:05;;;;;;;14.67;12.33;;;11.80;99.90;;;;;;5015871;28;20539;-76
2021/08/03 03:30:31;;;;;;;14.67;12.40;;;11.80;99.90;;;;;;5032287;28;20762;-76
2021/08/03 03:33:02;;;;;;;14.77;12.70;;;11.80;99.90;;;;;;5032251;28;20537;-76
2021/08/03 03:35:28;;;;;;;13.83;12.43;;;11.80;99.90;;;;;;5016919;28;20183;-76
2021/08/03 03:37:53;;;;;;;14.10;12.43;;;11.80;99.90;;;;;;5015650;28;20184;-76
2021/08/03 03:40:20;;;;;;;16.77;12.80;;;11.80;99.90;;;;;;5015162;28;20199;-76
2021/08/03 03:42:47;;;;;;;13.23;11.83;;;11.80;99.90;;;;;;5015701;28;20673;-77
2021/08/03 03:45:13;;;;;;;15.77;13.37;;;11.80;99.90;;;;;;5015471;28;20182;-77
2021/08/03 03:47:38;;;;;;;16.40;12.40;;;11.80;99.90;;;;;;5015388;28;20190;-77
2021/08/03 03:50:16;;;;;;;15.43;12.70;;;11.80;99.90;;;;;;5015107;28;20216;-77
2021/08/03 03:52:59;;;;;;;15.67;13.17;;;11.70;99.90;;;;;;5031799;28;20221;-77
2021/08/03 03:55:25;;;;;;;15.60;13.10;;;11.80;99.90;;;;;;5015861;28;20329;-77
2021/08/03 03:57:50;;;;;;;14.23;12.77;;;11.70;99.90;;;;;;5015179;28;20262;-76
2021/08/03 04:00:16;;;;;;;15.27;13.47;;;11.80;99.90;;;;;;5014823;28;20263;-76
2021/08/03 04:02:42;;;;;;;16.17;14.20;;;11.70;99.90;;;;;;5015222;28;20212;-77
2021/08/03 04:05:14;;;;;;;19.67;15.63;;;11.70;99.90;;;;;;5014790;28;20680;-76
2021/08/03 04:07:41;;;;;;;18.30;13.70;;;11.80;99.90;;;;;;4998656;28;20595;-76
2021/08/03 04:10:08;;;;;;;15.80;13.33;;;11.80;99.90;;;;;;5011911;28;20605;-76
2021/08/03 04:12:33;;;;;;;16.80;13.83;;;11.80;99.90;;;;;;5009913;28;20533;-76
2021/08/03 04:14:59;;;;;;;14.67;13.27;;;11.80;99.90;;;;;;4979252;28;20190;-77
2021/08/03 04:17:24;;;;;;;16.10;14.33;;;11.90;99.90;;;;;;4979401;28;20203;-77
2021/08/03 04:19:50;;;;;;;16.03;14.23;;;11.90;99.90;;;;;;5011571;28;20218;-76
2021/08/03 04:22:16;;;;;;;16.77;15.07;;;11.90;99.90;;;;;;4995472;28;20678;-76
2021/08/03 04:24:41;;;;;;;18.70;15.43;;;11.90;99.90;;;;;;5011457;28;20709;-76
2021/08/03 04:27:07;;;;;;;18.70;14.30;;;11.90;99.90;;;;;;4995089;28;20612;-76
2021/08/03 04:29:32;;;;;;;17.10;14.07;;;11.90;99.90;;;;;;4994841;28;20277;-76
2021/08/03 04:31:59;;;;;;;18.20;15.53;;;11.90;99.90;;;;;;4995321;28;20239;-76
2021/08/03 04:34:25;;;;;;;19.00;14.77;;;12.00;99.90;;;;;;4978962;28;20222;-76
2021/08/03 04:36:50;;;;;;;18.67;15.70;;;12.00;99.90;;;;;;4979047;28;20180;-76
2021/08/03 04:39:16;;;;;;;20.80;17.27;;;12.00;99.90;;;;;;4994880;28;20200;-76
2021/08/03 04:41:41;;;;;;;19.47;16.47;;;12.10;99.90;;;;;;4995146;28;20183;-76
2021/08/03 04:44:07;;;;;;;19.53;16.93;;;12.10;99.90;;;;;;5011656;28;20210;-77
2021/08/03 04:46:33;;;;;;;20.43;17.83;;;12.20;99.90;;;;;;4996211;28;20195;-77
2021/08/03 04:48:58;;;;;;;18.53;16.33;;;12.20;99.90;;;;;;5012537;28;20203;-76
2021/08/03 04:51:24;;;;;;;17.77;15.87;;;12.20;99.90;;;;;;4995985;28;20180;-76
2021/08/03 04:53:49;;;;;;;17.80;15.17;;;12.40;99.90;;;;;;5011372;28;20175;-76
2021/08/03 04:56:15;;;;;;;16.77;15.07;;;12.40;99.90;;;;;;5011011;28;20266;-76
2021/08/03 04:58:41;;;;;;;18.93;16.17;;;12.40;99.90;;;;;;5011273;28;20290;-75
2021/08/03 05:01:07;;;;;;;17.87;15.90;;;12.50;99.90;;;;;;5012300;28;20249;-76
2021/08/03 05:03:33;;;;;;;17.73;15.50;;;12.60;99.90;;;;;;5012437;28;20631;-75
2021/08/03 05:05:58;;;;;;;17.40;14.47;;;12.60;99.90;;;;;;4994824;28;20191;-75
2021/08/03 05:08:24;;;;;;;17.97;15.17;;;12.60;99.90;;;;;;5001286;28;20186;-75
2021/08/03 05:10:49;;;;;;;19.90;14.23;;;12.60;99.90;;;;;;5030462;28;20345;-75
2021/08/03 05:13:15;;;;;;;17.47;14.60;;;12.70;99.90;;;;;;5026495;28;20266;-75
2021/08/03 05:15:40;;;;;;;15.33;13.80;;;12.80;99.90;;;;;;5016065;28;20262;-76
2021/08/03 05:18:06;;;;;;;19.80;15.50;;;12.90;99.90;;;;;;5015080;28;20212;-76
2021/08/03 05:20:31;;;;;;;19.50;16.10;;;12.90;99.90;;;;;;5007037;28;20211;-77
2021/08/03 05:22:57;;;;;;;17.20;13.70;;;12.80;99.90;;;;;;5034721;28;20182;-76
2021/08/03 05:25:23;;;;;;;17.70;14.47;;;12.80;99.90;;;;;;5034531;28;20171;-76
2021/08/03 05:27:48;;;;;;;18.83;15.60;;;12.90;99.90;;;;;;5018150;28;20593;-76
2021/08/03 05:30:14;;;;;;;19.50;14.80;;;12.90;99.90;;;;;;5034105;28;20287;-76
2021/08/03 05:32:40;;;;;;;19.07;14.57;;;13.10;99.90;;;;;;5034503;28;20203;-76
2021/08/03 05:35:06;;;;;;;16.93;14.80;;;13.00;99.90;;;;;;5017951;28;20215;-76
2021/08/03 05:37:31;;;;;;;18.27;15.40;;;13.10;99.90;;;;;;5017897;28;20181;-76
2021/08/03 05:39:58;;;;;;;20.63;15.93;;;13.10;99.90;;;;;;5017838;28;20195;-76
2021/08/03 05:42:24;;;;;;;18.83;15.00;;;13.20;99.90;;;;;;5034545;28;20175;-75
2021/08/03 05:44:50;;;;;;;19.23;14.90;;;13.30;99.90;;;;;;4996549;28;20192;-76
2021/08/03 05:47:16;;;;;;;26.93;15.33;;;13.40;99.90;;;;;;5025674;28;20183;-76
2021/08/03 05:49:41;;;;;;;21.00;14.87;;;13.50;99.90;;;;;;5017383;28;20207;-75
2021/08/03 05:52:07;;;;;;;17.67;14.53;;;13.50;99.90;;;;;;5034233;28;20229;-76
2021/08/03 05:54:32;;;;;;;17.30;14.70;;;13.60;99.90;;;;;;5035407;28;20175;-75
2021/08/03 05:56:58;;;;;;;17.93;14.90;;;13.70;99.90;;;;;;5034284;28;20172;-76
2021/08/03 05:59:23;;;;;;;17.43;14.37;;;13.80;99.90;;;;;;5033799;28;20202;-76
2021/08/03 06:01:49;;;;;;;18.27;13.80;;;14.00;99.90;;;;;;5033999;28;20167;-76
2021/08/03 06:04:14;;;;;;;17.13;13.60;;;14.20;99.90;;;;;;5033652;28;20191;-76
2021/08/03 06:06:42;;;;;;;17.40;13.90;;;14.30;99.90;;;;;;5017320;28;20190;-76
2021/08/03 06:09:09;;;;;;;16.57;13.43;;;14.40;99.90;;;;;;5016556;28;20199;-76
2021/08/03 06:11:35;;;;;;;15.43;13.53;;;14.50;99.90;;;;;;5017355;28;20174;-76
2021/08/03 06:14:00;;;;;;;18.93;13.20;;;14.60;99.90;;;;;;5019409;28;20588;-77
2021/08/03 06:16:26;;;;;;;18.77;13.60;;;14.50;99.90;;;;;;5019201;28;20546;-81
2021/08/03 06:18:53;;;;;;;20.03;13.73;;;14.50;99.90;;;;;;5022961;28;20701;-80
2021/08/03 06:21:19;;;;;;;20.10;13.43;;;14.60;99.90;;;;;;5009597;28;20658;-79
2021/08/03 06:23:46;;;;;;;17.27;13.17;;;14.50;99.90;;;;;;5027426;28;20167;-79
2021/08/03 06:26:12;;;;;;;17.33;13.77;;;14.50;99.90;;;;;;5020948;28;20175;-79
2021/08/03 06:28:37;;;;;;;19.50;14.07;;;14.50;99.90;;;;;;5004921;28;20274;-78
2021/08/03 06:31:03;;;;;;;19.17;13.03;;;14.60;99.90;;;;;;5021392;28;20225;-79
2021/08/03 06:33:29;;;;;;;21.77;14.00;;;14.60;99.90;;;;;;5022784;28;20178;-86
2021/08/03 06:35:55;;;;;;;20.67;14.00;;;14.60;99.90;;;;;;5022474;28;20638;-76
2021/08/03 06:38:20;;;;;;;16.17;13.17;;;14.60;99.90;;;;;;5037403;28;20182;-77
2021/08/03 06:40:50;;;;;;;14.13;12.40;;;14.60;99.90;;;;;;5018290;28;20550;-78
2021/08/03 06:43:17;;;;;;;20.80;14.70;;;14.80;99.90;;;;;;5041490;28;20241;-77
2021/08/03 06:45:46;;;;;;;18.27;12.70;;;15.00;99.90;;;;;;5019944;28;20237;-77
2021/08/03 06:48:19;;;;;;;13.93;12.43;;;15.20;99.90;;;;;;5035779;28;20223;-78
2021/08/03 06:51:04;;;;;;;14.70;12.33;;;15.10;99.90;;;;;;5018977;28;20194;-78
2021/08/03 06:53:30;;;;;;;16.20;12.57;;;15.10;99.90;;;;;;5050599;28;20547;-79
2021/08/03 06:55:58;;;;;;;19.07;14.17;;;15.20;99.90;;;;;;5036051;28;20201;-77
2021/08/03 06:58:57;;;;;;;14.97;13.47;;;15.30;99.90;;;;;;5034642;28;20232;-78
2021/08/03 07:01:46;;;;;;;16.70;13.60;;;15.30;99.90;;;;;;4999938;28;20191;-77
2021/08/03 07:04:12;;;;;;;16.27;13.87;;;15.20;99.90;;;;;;4990762;28;20210;-78
2021/08/03 07:06:42;;;;;;;22.07;15.13;;;15.00;99.90;;;;;;5005193;28;20175;-77
2021/08/03 07:09:08;;;;;;;17.97;15.60;;;15.00;99.90;;;;;;5002236;28;20201;-78
2021/08/03 07:11:33;;;;;;;19.10;15.03;;;15.10;99.90;;;;;;5020114;28;20258;-79
2021/08/03 07:13:59;;;;;;;19.43;14.47;;;15.30;99.90;;;;;;5021628;28;20175;-79
2021/08/03 07:16:27;;;;;;;15.80;14.00;;;15.40;99.90;;;;;;5023273;28;20594;-78
2021/08/03 07:18:53;;;;;;;17.40;14.37;;;15.60;99.90;;;;;;5002114;28;20288;-77
2021/08/03 07:21:18;;;;;;;19.30;14.40;;;15.70;99.90;;;;;;5019620;28;20182;-80
2021/08/03 07:23:44;;;;;;;19.97;15.47;;;15.80;99.90;;;;;;5002529;28;20179;-81
2021/08/03 07:26:09;;;;;;;22.17;17.57;;;16.00;99.90;;;;;;5017829;28;20167;-81
2021/08/03 07:28:35;;;;;;;18.10;15.73;;;16.10;99.90;;;;;;5003696;28;20219;-80
2021/08/03 07:31:01;;;;;;;19.33;16.60;;;16.20;99.90;;;;;;5003496;28;20247;-81
2021/08/03 07:33:26;;;;;;;20.87;17.27;;;16.10;99.90;;;;;;5002910;28;20172;-80
2021/08/03 07:35:52;;;;;;;19.63;17.17;;;16.20;99.90;;;;;;5000997;28;20172;-80
2021/08/03 07:38:17;;;;;;;19.70;16.40;;;16.20;99.90;;;;;;5035362;28;20179;-80
2021/08/03 07:40:43;;;;;;;27.00;17.00;;;16.30;99.90;;;;;;5005893;28;20178;-81
2021/08/03 07:43:09;;;;;;;21.47;15.73;;;16.50;99.90;;;;;;5021393;28;20178;-80
2021/08/03 07:45:36;;;;;;;19.63;16.20;;;16.60;99.90;;;;;;5038272;28;20190;-80
2021/08/03 07:48:01;;;;;;;22.57;16.53;;;16.70;99.90;;;;;;5020738;28;20198;-79
2021/08/03 07:50:27;;;;;;;18.30;15.77;;;16.80;99.90;;;;;;5018769;28;20693;-78
2021/08/03 07:52:53;;;;;;;21.67;15.67;;;16.70;99.90;;;;;;5024454;28;20706;-79
2021/08/03 07:55:19;;;;;;;19.20;15.23;;;16.70;99.90;;;;;;5009355;28;20277;-78
2021/08/03 07:57:44;;;;;;;18.30;15.10;;;16.60;99.90;;;;;;5023351;28;20221;-78
2021/08/03 08:00:10;;;;;;;21.20;15.07;;;16.70;99.90;;;;;;4997021;28;20357;-78
2021/08/03 08:02:36;;;;;;;16.53;13.07;;;16.80;99.90;;;;;;5034520;28;20182;-79
2021/08/03 08:05:01;;;;;;;17.33;13.03;;;16.80;99.90;;;;;;5019011;28;20210;-78
2021/08/03 08:07:27;;;;;;;17.37;12.47;;;16.80;99.90;;;;;;5038068;28;20183;-78
2021/08/03 08:09:53;;;;;;;17.47;12.27;;;16.80;99.90;;;;;;5036384;28;20191;-78
2021/08/03 08:12:19;;;;;;;17.53;13.07;;;16.80;99.90;;;;;;5037710;28;20175;-78
2021/08/03 08:14:45;;;;;;;17.80;13.20;;;16.80;99.90;;;;;;5038902;28;20177;-78
2021/08/03 08:17:10;;;;;;;17.67;11.97;;;16.80;99.90;;;;;;5021988;28;20212;-78
2021/08/03 08:19:36;;;;;;;15.70;11.43;;;16.70;99.90;;;;;;5036441;28;20257;-78
2021/08/03 08:22:01;;;;;;;18.03;10.83;;;16.80;99.90;;;;;;5034454;28;20190;-79
2021/08/03 08:24:27;;;;;;;17.93;11.80;;;16.80;99.90;;;;;;5034755;28;20178;-79
2021/08/03 08:26:52;;;;;;;15.03;11.00;;;16.90;99.90;;;;;;5037862;28;20210;-78
2021/08/03 08:29:19;;;;;;;14.53;10.93;;;16.90;99.90;;;;;;5037399;28;20217;-78
2021/08/03 08:31:44;;;;;;;13.03;10.73;;;16.90;99.90;;;;;;5054451;28;20242;-78
2021/08/03 08:34:10;;;;;;;14.80;9.80;;;16.90;99.90;;;;;;5038347;28;20198;-78
2021/08/03 08:36:36;;;;;;;13.97;9.23;;;16.90;99.90;;;;;;5037731;28;20530;-78
2021/08/03 08:39:01;;;;;;;12.40;8.90;;;17.00;99.90;;;;;;5037547;28;20202;-77
2021/08/03 08:41:27;;;;;;;13.13;9.10;;;17.00;99.90;;;;;;5037105;28;20182;-78
2021/08/03 08:43:54;;;;;;;9.97;8.33;;;17.20;99.90;;;;;;5021027;28;20270;-78
2021/08/03 08:46:19;;;;;;;13.47;8.00;;;17.30;99.90;;;;;;5037124;28;20668;-78
2021/08/03 08:48:45;;;;;;;9.03;6.97;;;17.30;99.90;;;;;;5019540;28;20198;-78
2021/08/03 08:51:10;;;;;;;10.87;8.17;;;17.30;99.90;;;;;;5020740;28;20220;-78
2021/08/03 08:53:36;;;;;;;9.33;8.20;;;17.40;99.90;;;;;;5037396;28;20178;-78
2021/08/03 08:56:03;;;;;;;11.33;7.93;;;17.40;99.90;;;;;;5054351;28;20181;-77
2021/08/03 08:58:34;;;;;;;11.47;7.13;;;17.50;99.90;;;;;;5037932;28;20251;-78
2021/08/03 09:01:00;;;;;;;8.40;5.87;;;17.60;99.90;;;;;;5037487;28;20182;-78
2021/08/03 09:03:25;;;;;;;7.97;5.63;;;17.70;99.90;;;;;;5038917;28;20190;-78
2021/08/03 09:06:02;;;;;;;7.43;5.97;;;17.80;99.90;;;;;;5038748;28;20569;-79
2021/08/03 09:08:35;;;;;;;9.43;5.37;;;17.70;99.90;;;;;;5051986;28;20188;-78
2021/08/03 09:11:11;;;;;;;8.37;6.27;;;17.80;99.90;;;;;;5019788;28;20245;-78
2021/08/03 09:13:54;;;;;;;7.97;7.07;;;17.90;99.90;;;;;;5022630;28;20186;-78
2021/08/03 09:16:20;;;;;;;9.23;6.67;;;18.00;99.90;;;;;;5023366;28;20233;-77
2021/08/03 09:18:46;;;;;;;10.93;7.03;;;18.00;99.90;;;;;;5016041;28;20202;-78
2021/08/03 09:21:26;;;;;;;8.00;6.33;;;18.00;99.90;;;;;;4990482;28;20186;-78
2021/08/03 09:23:59;;;;;;;9.37;6.20;;;18.00;99.90;;;;;;5025830;28;20244;-79
2021/08/03 09:26:42;;;;;;;11.03;7.07;;;18.10;99.90;;;;;;5038908;28;20221;-79
2021/08/03 09:29:09;;;;;;;11.00;7.73;;;18.20;99.90;;;;;;5054537;28;20194;-79
2021/08/03 09:31:35;;;;;;;8.83;7.80;;;18.20;99.90;;;;;;5021497;28;20678;-79
2021/08/03 09:34:11;;;;;;;9.20;8.07;;;18.30;99.90;;;;;;5038275;28;20228;-79
2021/08/03 09:36:50;;;;;;;10.33;8.50;;;18.30;99.90;;;;;;5021317;28;20174;-78
2021/08/03 09:39:54;;;;;;;9.23;7.87;;;18.30;99.90;;;;;;5018955;28;20195;-78
2021/08/03 09:42:23;;;;;;;8.93;7.53;;;18.30;99.90;;;;;;4961453;28;20191;-79
2021/08/03 09:44:56;;;;;;;12.33;9.40;;;18.30;99.90;;;;;;4979013;28;20184;-78
2021/08/03 09:47:22;;;;;;;13.93;9.77;;;18.30;99.90;;;;;;5006854;28;20214;-79
2021/08/03 09:49:49;;;;;;;13.97;9.60;;;18.30;99.90;;;;;;5001373;28;20218;-79
2021/08/03 09:52:17;;;;;;;14.87;10.50;;;18.50;99.90;;;;;;5034742;28;20548;-78
2021/08/03 09:54:42;;;;;;;17.53;10.70;;;18.50;99.90;;;;;;5003566;28;20187;-79
2021/08/03 09:57:18;;;;;;;12.80;9.63;;;18.40;99.90;;;;;;5000691;28;20215;-78
2021/08/03 09:59:43;;;;;;;10.00;8.47;;;18.40;99.90;;;;;;5027467;28;20205;-78
2021/08/03 10:02:13;;;;;;;11.30;7.93;;;18.40;99.90;;;;;;5011475;28;20184;-79
2021/08/03 10:04:41;;;;;;;10.63;7.57;;;18.30;99.90;;;;;;5030560;28;20180;-78
2021/08/03 10:07:06;;;;;;;8.10;6.80;;;18.40;99.90;;;;;;5027280;28;20263;-79
2021/08/03 10:09:34;;;;;;;7.97;5.70;;;18.40;99.90;;;;;;5012174;28;20207;-78
2021/08/03 10:12:00;;;;;;;7.13;5.40;;;18.40;99.90;;;;;;5013536;28;20167;-79
2021/08/03 10:14:26;;;;;;;5.87;4.30;;;18.40;99.90;;;;;;5030484;28;20187;-79
2021/08/03 10:16:53;;;;;;;6.87;4.30;;;18.50;99.90;;;;;;5004918;28;20209;-78
2021/08/03 10:19:21;;;;;;;7.10;4.93;;;18.50;99.90;;;;;;5020059;28;20601;-79
2021/08/03 10:21:48;;;;;;;6.73;4.83;;;18.50;99.90;;;;;;5037365;28;20587;-80
2021/08/03 10:24:15;;;;;;;7.50;4.30;;;18.60;99.90;;;;;;5020827;28;20240;-79
2021/08/03 10:26:40;;;;;;;6.07;4.00;;;18.80;99.90;;;;;;5037054;28;20179;-79
2021/08/03 10:29:22;;;;;;;5.17;4.37;;;18.80;99.90;;;;;;5053844;28;20205;-80
2021/08/03 10:31:48;;;;;;;6.23;4.57;;;18.90;99.90;;;;;;5037196;28;20228;-80
2021/08/03 10:34:42;;;;;;;6.47;4.00;;;18.80;99.90;;;;;;5021499;28;20722;-80
2021/08/03 10:37:07;;;;;;;4.73;4.13;;;18.80;99.90;;;;;;5038064;28;20190;-79
2021/08/03 10:39:52;;;;;;;5.10;4.20;;;18.90;99.90;;;;;;5026498;28;20198;-79
2021/08/03 10:42:18;;;;;;;5.47;3.83;;;19.00;99.90;;;;;;5057173;28;20214;-79
2021/08/03 10:44:52;;;;;;;6.87;4.03;;;19.00;99.90;;;;;;5041782;28;20178;-80
2021/08/03 10:47:33;;;;;;;4.67;4.20;;;19.10;99.90;;;;;;5022943;28;20190;-79
2021/08/03 10:49:59;;;;;;;5.87;4.10;;;19.00;99.90;;;;;;5038859;28;20214;-80
2021/08/03 10:52:48;;;;;;;4.07;3.67;;;19.00;99.90;;;;;;5055378;28;20545;-79
2021/08/03 10:55:32;;;;;;;5.50;3.90;;;19.10;99.90;;;;;;5039651;28;20174;-79
2021/08/03 10:58:13;;;;;;;4.63;3.80;;;19.10;99.90;;;;;;5039080;28;20175;-80
2021/08/03 11:00:42;;;;;;;4.87;3.70;;;19.00;99.90;;;;;;5035890;28;20187;-78
2021/08/03 11:03:30;;;;;;;5.53;3.70;;;19.10;99.90;;;;;;5030488;28;20181;-79
2021/08/03 11:06:10;;;;;;;5.27;3.80;;;19.10;99.90;;;;;;5036092;28;20560;-79
2021/08/03 11:08:46;;;;;;;5.07;3.80;;;19.00;99.90;;;;;;5038468;28;20197;-77
2021/08/03 11:11:25;;;;;;;5.23;4.57;;;19.00;99.90;;;;;;5040668;28;20249;-79
2021/08/03 11:13:51;;;;;;;4.53;3.90;;;19.10;99.90;;;;;;5004693;28;20286;-79
2021/08/03 11:16:23;;;;;;;5.77;4.00;;;19.10;99.90;;;;;;5001908;28;20214;-80
2021/08/03 11:18:50;;;;;;;4.23;3.77;;;19.10;99.90;;;;;;5032536;28;20256;-79
2021/08/03 11:21:26;;;;;;;5.43;3.77;;;19.00;99.90;;;;;;5052262;28;20643;-79
2021/08/03 11:24:09;;;;;;;4.63;3.47;;;18.90;99.90;;;;;;5052279;28;20202;-79
2021/08/03 11:26:55;;;;;;;6.47;3.60;;;18.90;99.90;;;;;;5036587;28;20179;-79
2021/08/03 11:29:23;;;;;;;5.67;3.90;;;19.00;99.90;;;;;;5036930;28;20217;-79
2021/08/03 11:32:00;;;;;;;5.70;3.80;;;19.00;99.90;;;;;;5025708;28;20176;-79
2021/08/03 11:34:27;;;;;;;5.47;4.20;;;18.90;99.90;;;;;;4988321;28;20213;-79
2021/08/03 11:37:03;;;;;;;5.43;3.73;;;18.90;99.90;;;;;;5001017;28;20195;-79
2021/08/03 11:39:33;;;;;;;7.90;4.40;;;18.90;99.90;;;;;;5016988;28;20690;-79
2021/08/03 11:41:59;;;;;;;5.23;4.10;;;19.00;99.90;;;;;;5000161;28;20179;-79
2021/08/03 11:44:25;;;;;;;5.13;4.23;;;19.00;99.90;;;;;;5000295;28;20193;-79
2021/08/03 11:46:54;;;;;;;6.17;4.07;;;19.10;99.90;;;;;;5007153;28;20252;-77
2021/08/03 11:49:32;;;;;;;6.87;4.10;;;19.00;99.90;;;;;;5053056;28;20190;-77
2021/08/03 11:52:07;;;;;;;4.10;3.70;;;19.10;99.90;;;;;;5000819;28;20194;-77
2021/08/03 11:54:33;;;;;;;4.13;3.70;;;19.10;99.90;;;;;;5030397;28;20175;-76
2021/08/03 11:56:59;;;;;;;6.40;4.30;;;19.10;99.90;;;;;;5014930;28;20183;-76
2021/08/03 11:59:31;;;;;;;6.77;4.20;;;19.20;99.90;;;;;;5015539;28;20209;-76
2021/08/03 12:01:57;;;;;;;6.53;4.10;;;19.30;99.90;;;;;;5033798;28;20183;-76
2021/08/03 12:04:23;;;;;;;3.97;3.57;;;19.20;99.90;;;;;;5034761;28;20202;-76
2021/08/03 12:06:50;;;;;;;5.60;4.13;;;19.20;99.90;;;;;;5017804;28;20183;-76
2021/08/03 12:09:17;;;;;;;6.10;4.00;;;19.30;99.90;;;;;;5033259;28;20186;-76
2021/08/03 12:11:42;;;;;;;6.17;4.17;;;19.30;99.90;;;;;;5013928;28;20172;-76
2021/08/03 12:14:12;;;;;;;6.20;4.10;;;19.40;99.90;;;;;;4998276;28;20242;-76
2021/08/03 12:16:42;;;;;;;6.77;4.50;;;19.50;99.90;;;;;;5001240;28;20178;-76
2021/08/03 12:19:26;;;;;;;7.10;4.50;;;19.60;99.90;;;;;;5035300;28;20203;-81
2021/08/03 12:21:52;;;;;;;6.87;4.50;;;19.70;99.90;;;;;;5004382;28;20167;-78
2021/08/03 12:24:17;;;;;;;4.87;4.37;;;19.70;99.90;;;;;;5032932;28;20179;-77
2021/08/03 12:26:44;;;;;;;6.80;4.87;;;19.70;99.90;;;;;;5017244;28;20183;-77
2021/08/03 12:29:10;;;;;;;5.90;4.87;;;19.70;99.90;;;;;;5001252;28;20555;-77
2021/08/03 12:31:41;;;;;;;5.90;4.83;;;19.70;99.90;;;;;;5034061;28;20661;-80
2021/08/03 12:34:07;;;;;;;7.47;4.97;;;19.60;99.90;;;;;;5033819;28;20175;-77
2021/08/03 12:36:41;;;;;;;6.40;4.53;;;19.70;99.90;;;;;;5033832;28;20182;-77
2021/08/03 12:39:07;;;;;;;7.47;5.00;;;19.70;99.90;;;;;;5034355;28;20194;-78
2021/08/03 12:44:56;;;;;;;6.57;4.23;;;19.80;99.90;;;;;;5036932;28;20158;-82